Nearby METAR Reports

 

KRNT - Renton, Washington, USA
Distance from station: NNW 3mi, 4km
Updated: Mon, 25-Jan-2021 1:53pm PST
Partly cloudy
Partly cloudy
 Wind from S
Wind: S 6 mph , 9 km/h
Temperature: 45°F , 7°C
Wind Chill: 42°F , 6°C
Dew Point: 34°F , 1°C
Humidity: 66%
Barometer: 29.85 inHg , 1010.8 hPa
Clouds: Partly cloudy
Visibility: 10 miles , 16 km
Cloud details: Few Clouds 2500 ft
Partly cloudy 6500 ft
2021/01/25 21:53 KRNT 252153Z 18005KT 10SM FEW025 SCT065 07/01 A2985 RMK AO2 SLP114 T00670011
KSEA - Seattle/Metro, Washington, USA
Distance from station: W 5mi, 9km
Updated: Mon, 25-Jan-2021 1:53pm PST
Partly cloudy
Partly cloudy
 Wind from S
Wind: S 9 mph , 15 km/h
Temperature: 45°F , 7°C
Wind Chill: 40°F , 4°C
Dew Point: 36°F , 2°C
Humidity: 71%
Barometer: 29.84 inHg , 1010.5 hPa
Clouds: Partly cloudy
Visibility: 10 miles , 16 km
Cloud details: Few Clouds 2000 ft
Partly cloudy 4000 ft
Partly cloudy 5500 ft
2021/01/25 21:53 KSEA 252153Z 19008KT 10SM FEW020 SCT040 SCT055 07/02 A2984 RMK AO2 RAE28 SLP113 P0000 T00670017
KBFI - Seattle/Boeing, Washington, USA
Distance from station: NW 8mi, 13km
Updated: Mon, 25-Jan-2021 1:53pm PST
Mostly cloudy
Mostly cloudy
 Wind from varies
Wind: varies 7 mph , 11 km/h
Temperature: 45°F , 7°C
Wind Chill: 41°F , 5°C
Dew Point: 34°F , 1°C
Humidity: 66%
Barometer: 29.86 inHg , 1011.2 hPa
Clouds: Mostly cloudy
Visibility: 10 miles , 16 km
Cloud details: Mostly cloudy 2900 ft
Mostly cloudy 4900 ft
2021/01/25 21:53 KBFI 252153Z VRB06KT 10SM BKN029 BKN049 07/01 A2986 RMK AO2 SLP109 T00670006
 
KTIW - Tacoma, Washington, USA
Distance from station: SW 22mi, 36km
Updated: Mon, 25-Jan-2021 1:53pm PST
Mostly cloudy
Mostly cloudy
 Wind from WSW
Wind: WSW 8 mph , 13 km/h
Temperature: 41°F , 5°C
Wind Chill: 36°F , 2°C
Dew Point: 34°F , 1°C
Humidity: 76%
Barometer: 29.85 inHg , 1010.8 hPa
Clouds: Mostly cloudy
Visibility: 10 miles , 16 km
Cloud details: Mostly cloudy 1800 ft
Mostly cloudy 4500 ft
2021/01/25 21:53 KTIW 252153Z 24007KT 10SM BKN018 BKN045 05/01 A2985 RMK AO2 SLP111 T00500006
KPLU - Puyallup/Thun, Washington, USA
Distance from station: S 25mi, 41km
Updated: Mon, 25-Jan-2021 2:35pm PST
Overcast
Overcast
 Wind from calm
Wind: Calm
Temperature: 43°F , 6°C
Dew Point: 36°F , 2°C
Humidity: 76%
Barometer: 29.85 inHg , 1010.8 hPa
Clouds: Overcast
Visibility: 10 miles , 16 km
Cloud details: Mostly cloudy 3300 ft
Mostly cloudy 4100 ft
Overcast 7000 ft
2021/01/25 22:35 KPLU 252235Z AUTO 00000KT 10SM BKN033 BKN041 OVC070 06/02 A2985 RMK AO2
KPWT - Bremerton Ntnl, Washington, USA
Distance from station: W 26mi, 41km
Updated: Mon, 25-Jan-2021 2:06pm PST
Partly cloudy
Partly cloudy
 Wind from SSW
Wind: SSW 10 mph , 17 km/h
Temperature: 43°F , 6°C
Wind Chill: 37°F , 3°C
Dew Point: 36°F , 2°C
Humidity: 76%
Barometer: 29.84 inHg , 1010.5 hPa
Clouds: Partly cloudy
Visibility: 10 miles , 16 km
Cloud details: Few Clouds 1100 ft
Partly cloudy 2500 ft
2021/01/25 22:06 KPWT 252206Z AUTO 20009KT 10SM FEW011 SCT025 06/02 A2984 RMK AO2 $
 
KTCM - Tacoma/Mc Chord, Washington, USA
Distance from station: SSW 27mi, 43km
Updated: Mon, 25-Jan-2021 1:58pm PST
Mostly cloudy
Mostly cloudy
 Wind from SW
Wind: SW 10 mph , 17 km/h
Temperature: 45°F , 7°C
Wind Chill: 40°F , 4°C
Dew Point: 34°F , 1°C
Humidity: 66%
Barometer: 29.85 inHg , 1010.8 hPa
Clouds: Mostly cloudy
Visibility: 10 miles , 16 km
Cloud details: Partly cloudy 2400 ft
Mostly cloudy 6500 ft
2021/01/25 21:58 KTCM 252158Z AUTO 22009KT 10SM SCT024 BKN065 07/01 A2985 RMK AO2 SLP114 T00690010 $
KPAE - Everett, Washington, USA
Distance from station: N 32mi, 51km
Updated: Mon, 25-Jan-2021 2:18pm PST
Overcast
Overcast
 Wind from SSE
Wind: SSE 9 mph , 15 km/h
Temperature: 43°F , 6°C
Wind Chill: 38°F , 3°C
Dew Point: 34°F , 1°C
Humidity: 71%
Barometer: 29.84 inHg , 1010.5 hPa
Clouds: Overcast
Visibility: 10 miles , 16 km
Cloud details: Partly cloudy 2400 ft
Mostly cloudy 2900 ft
Overcast 5500 ft
2021/01/25 22:18 KPAE 252218Z 16008KT 10SM SCT024 BKN029 OVC055 06/01 A2984 RMK AO2 T00560006
KGRF - Fort Lewis/Gray, Washington, USA
Distance from station: SSW 32mi, 52km
Updated: Mon, 25-Jan-2021 1:58pm PST
Few Clouds
Few Clouds
 Wind from S
Wind: S 9 mph , 15 km/h
Temperature: 43°F , 6°C
Wind Chill: 38°F , 3°C
Dew Point: 43°F , 6°C
Humidity: 100%
Barometer: 29.84 inHg , 1010.5 hPa
Clouds: Few Clouds
Visibility: 10 miles , 16 km
Cloud details: Few Clouds 2200 ft
2021/01/25 21:58 KGRF 252158Z AUTO 18008KT 10SM FEW022 06/06 A2984 RMK AO2 SLP111 T00570056 $
 
KSMP - Stampede Pass, Washington, USA
Distance from station: ESE 42mi, 68km
Updated: Mon, 25-Jan-2021 2:38pm PST
Light snow, Overcast
Light snow, Overcast
 Wind from calm
Wind: Calm
Temperature: 28°F , -2°C
Dew Point: 21°F , -6°C
Humidity: 74%
Barometer: 29.72 inHg , 1006.4 hPa
Summary: Light Snow
Clouds: Overcast
Visibility: 5 miles , 8 km
Cloud details: Partly cloudy 2100 ft
Overcast 3800 ft
2021/01/25 22:38 KSMP 252238Z AUTO 00000KT 5SM -SN SCT021 OVC038 M02/M06 A2972 RMK AO2 SNB34 P0000 T10221056
KSHN - Shelton, Washington, USA
Distance from station: WSW 46mi, 75km
Updated: Mon, 25-Jan-2021 2:30pm PST
Mostly cloudy
Mostly cloudy
 Wind from WNW
Wind: WNW 6 mph , 9 km/h
Temperature: 43°F , 6°C
Wind Chill: 39°F , 4°C
Dew Point: 36°F , 2°C
Humidity: 76%
Barometer: 29.83 inHg , 1010.2 hPa
Clouds: Mostly cloudy
Visibility: 10 miles , 16 km
Cloud details: Partly cloudy 1600 ft
Mostly cloudy 2400 ft
Mostly cloudy 3600 ft
2021/01/25 22:30 KSHN 252230Z AUTO 30005KT 10SM SCT016 BKN024 BKN036 06/02 A2983 RMK AO2 T00560022
KOLM - Olympia, Washington, USA
Distance from station: SW 47mi, 76km
Updated: Mon, 25-Jan-2021 1:54pm PST
Overcast
Overcast
 Wind from SSW
Wind: SSW 9 mph , 15 km/h
Temperature: 41°F , 5°C
Wind Chill: 35°F , 2°C
Dew Point: 36°F , 2°C
Humidity: 81%
Barometer: 29.85 inHg , 1010.8 hPa
Clouds: Overcast
Visibility: 10 miles , 16 km
Cloud details: Overcast 2000 ft
2021/01/25 21:54 KOLM 252154Z 20008KT 10SM OVC020 05/02 A2985 RMK AO2 SLP111 T00500017 $
 
KAWO - Arlington Muni, Washington, USA
Distance from station: N 49mi, 78km
Updated: Mon, 25-Jan-2021 2:20pm PST
Overcast
Overcast
 Wind from SE
Wind: SE 8 mph , 13 km/h
Temperature: 43°F , 6°C
Wind Chill: 38°F , 3°C
Dew Point: 36°F , 2°C
Humidity: 76%
Barometer: 29.85 inHg , 1010.8 hPa
Clouds: Overcast
Visibility: 10 miles , 16 km
Cloud details: Few Clouds 2600 ft
Mostly cloudy 3900 ft
Overcast 5500 ft
2021/01/25 22:20 KAWO 252220Z AUTO 14007KT 10SM FEW026 BKN039 OVC055 06/02 A2985 RMK AO2
K0S9 - Port Townsend, Washington, USA
Distance from station: NW 50mi, 80km
Updated: Mon, 25-Jan-2021 3:04pm PST
unable to load K0S9 data RC=404
unable to load K0S9 data RC=404